Richlands, NC

4:14 AM EST on February 14, 2016 (GMT -0500)
Ellis | | Change Station
CLOSE
Current Station
Airport
Location: Jacksonville,
Elevation: 95 ft
Nearby Weather Stations
Active Advisory: Special Statement

Elev 95 ft 34.83 °N, 77.62 °W | Updated 19 minutes ago

Clear
Clear
21 °F
Feels Like 15 °F
N
5
Wind Variable Wind from NNW

Today
High -- | Low -- °F
--% Chance of Precip.
Yesterday
High -- | Low -- °F
Precip. -- in
Pressure 30.45 in
Visibility 10.0 miles
Clouds Clear
Windchill 15 °F
Dew Point 0 °F
Humidity 39%
Rainfall 0.00 in
Snow Depth Not available.
6:57 AM 5:51 PM
Waxing Crescent, 39% visible
METAR KOAJ 140855Z AUTO 33004KT 10SM CLR M06/M18 A3045 RMK AO1 52010
Pressure 30.45 in
Visibility 10.0 miles
Clouds Clear
Windchill 15 °F
Dew Point 0 °F
Humidity 39%
Rainfall 0.00 in
Snow Depth Not available.
6:57 AM 5:51 PM
Waxing Crescent, 39% visible
METAR KOAJ 140855Z AUTO 33004KT 10SM CLR M06/M18 A3045 RMK AO1 52010

10-Day Weather Forecast

Almanac

Astronomy

Feb. 14, 2016 Rise Set
Actual Time
Civil Twilight
Nautical Twilight
Astronomical Twilight
Moon
Length of Visible Light
Length of Day
Tomorrow will be .
, % of the Moon is Illuminated

Today's Extremes

State Highs State Lows

Community

WunderPhotos

Upload Photos

1,892,763 photos uploaded!

WunderBlog® & News

Nearby

Air Quality

  Air Quality AQ Index Pollutant
Not available.

Snow Depth

Station Depth Elevation

Earthquake Activity

City Distance Mag. Time & Date
Minimum magnitude displayed is 2.5.

Coastal Water Temperatures

Place Temperature

Stations

Nearby Weather Stations

Station Location Temp. Windchill Dew Point Humidity Wind Precip. Elev Updated Type
                   

Watches & Warnings

Special Statement
Issued: 3:52 PM EST Feb. 13, 2016 – National Weather Service

... Very cold wind chill values late tonight and Sunday morning...

Arctic high pressure will build into the region tonight bringing
northwest winds and very cold temperatures around 15-20 degrees by
late tonight. This will produce wind chill values in the single
digits early Sunday morning.

Prolonged exposure to these wind chill temperatures is dangerous.
If venturing outside, wear layers of clothing including a hat and
gloves.